Time;durP1;ratioP1;P1;durP2;ratioP2;P2;SDS_P1;SDS_P2;PMS_P1;PMS_P2;Temp;Humidity;BMP_temperature;BMP_pressure;BME280_temperature;BME280_humidity;BME280_pressure;Samples;Min_cycle;Max_cycle;Signal;HPM_P1;HPM_P2
2023/02/24 00:00:31;;;;;;;18.77;10.80;;;6.80;1.00;;;9.27;100.00;95088.63;4965131;28;20241;-65
2023/02/24 00:03:04;;;;;;;18.13;10.30;;;6.80;1.00;;;9.45;100.00;95085.47;4969114;28;20232;-65
2023/02/24 00:05:34;;;;;;;16.33;9.33;;;6.80;1.00;;;9.50;100.00;95093.47;4966915;28;20763;-65
2023/02/24 00:08:01;;;;;;;16.83;9.57;;;6.80;1.00;;;9.53;100.00;95086.78;4970813;28;20556;-65
2023/02/24 00:10:28;;;;;;;18.93;9.77;;;6.80;1.00;;;9.56;100.00;95081.75;4963134;28;20257;-65
2023/02/24 00:12:55;;;;;;;16.73;9.83;;;6.80;1.00;;;9.30;100.00;95103.28;4967703;28;20281;-65
2023/02/24 00:15:24;;;;;;;19.87;10.07;;;6.80;1.00;;;8.76;100.00;95080.75;4969426;28;20218;-65
2023/02/24 00:17:50;;;;;;;18.50;10.47;;;6.80;1.00;;;8.77;100.00;95071.75;4966862;28;20284;-65
2023/02/24 00:20:18;;;;;;;15.97;9.97;;;6.80;1.00;;;8.77;100.00;95053.16;4965756;28;20714;-65
2023/02/24 00:22:45;;;;;;;16.03;10.03;;;6.80;1.00;;;8.84;100.00;95051.03;4964995;28;20225;-65
2023/02/24 00:25:13;;;;;;;16.70;10.70;;;6.80;1.00;;;8.85;100.00;95049.97;4966264;28;20217;-65
2023/02/24 00:27:41;;;;;;;19.10;10.23;;;6.80;1.00;;;8.97;100.00;95040.69;4966225;28;20309;-65
2023/02/24 00:30:10;;;;;;;17.23;10.63;;;6.80;1.00;;;9.12;100.00;95046.03;4964966;28;20205;-65
2023/02/24 00:32:39;;;;;;;18.63;10.03;;;6.70;1.00;;;9.46;100.00;95055.13;4963037;28;20206;-64
2023/02/24 00:35:08;;;;;;;17.87;10.07;;;6.70;1.00;;;8.78;100.00;95052.06;4969004;28;20240;-65
2023/02/24 00:37:35;;;;;;;21.17;11.10;;;6.70;1.00;;;8.73;100.00;95036.88;4968023;28;20208;-65
2023/02/24 00:40:09;;;;;;;24.43;13.00;;;6.70;1.00;;;8.72;100.00;95026.53;4966307;28;20675;-65
2023/02/24 00:42:37;;;;;;;193.83;16.90;;;6.80;1.00;;;8.68;100.00;95009.50;4966173;28;20277;-65
2023/02/24 00:45:08;;;;;;;359.47;20.67;;;6.70;1.00;;;8.73;100.00;95015.63;4965375;28;20214;-65
2023/02/24 00:47:38;;;;;;;157.87;16.73;;;6.70;1.00;;;8.77;100.00;95003.41;4959603;28;20630;-65
2023/02/24 00:50:07;;;;;;;275.50;19.90;;;6.80;1.00;;;8.80;100.00;95007.41;4965410;28;20260;-65
2023/02/24 00:52:35;;;;;;;124.40;15.30;;;6.70;1.00;;;8.80;100.00;95002.91;4962817;28;20208;-65
2023/02/24 00:55:12;;;;;;;492.27;25.30;;;6.70;1.00;;;8.72;100.00;95005.28;4967986;28;20210;-65
2023/02/24 00:57:40;;;;;;;197.30;18.53;;;6.70;1.00;;;8.72;100.00;95000.75;4966233;28;20212;-65
2023/02/24 01:00:13;;;;;;;204.37;19.57;;;6.70;1.00;;;8.64;100.00;94995.16;4957755;28;20249;-65
2023/02/24 01:02:43;;;;;;;77.40;15.83;;;6.70;1.00;;;8.63;100.00;94981.03;4965072;28;20288;-65
2023/02/24 01:05:11;;;;;;;232.80;22.03;;;6.70;1.00;;;8.60;100.00;94960.31;4964727;28;20895;-65
2023/02/24 01:07:38;;;;;;;35.53;15.47;;;6.70;1.00;;;8.70;100.00;94948.91;4959949;28;20648;-65
2023/02/24 01:10:07;;;;;;;30.10;15.87;;;6.70;1.00;;;8.73;100.00;94957.16;4958148;28;20264;-65
2023/02/24 01:12:48;;;;;;;47.17;16.97;;;6.80;1.00;;;8.74;100.00;94950.78;4963295;28;20596;-65
2023/02/24 01:15:17;;;;;;;43.00;17.53;;;6.80;1.00;;;8.74;100.00;94953.44;4962773;28;21809;-65
2023/02/24 01:17:45;;;;;;;62.50;18.57;;;6.80;1.00;;;8.58;100.00;94945.69;4966115;28;20667;-65
2023/02/24 01:20:17;;;;;;;35.33;18.87;;;6.80;1.00;;;8.66;100.00;94940.66;4963995;28;20261;-65
2023/02/24 01:22:46;;;;;;;38.83;20.20;;;6.80;1.00;;;8.69;100.00;94948.13;4962939;28;20232;-65
2023/02/24 01:25:13;;;;;;;35.00;19.53;;;6.80;1.00;;;8.75;100.00;94944.41;4965432;28;20259;-65
2023/02/24 01:27:40;;;;;;;37.37;19.53;;;6.80;1.00;;;8.74;100.00;94948.13;4969589;28;20206;-65
2023/02/24 01:30:12;;;;;;;40.10;20.00;;;6.80;1.00;;;8.86;100.00;94953.19;4964746;28;20300;-65
2023/02/24 01:32:40;;;;;;;41.97;21.53;;;6.80;1.00;;;8.76;100.00;94959.28;4968132;28;20221;-65
2023/02/24 01:35:10;;;;;;;42.03;22.00;;;6.80;1.00;;;8.75;100.00;94967.53;4960111;28;20209;-65
2023/02/24 01:37:38;;;;;;;38.20;20.87;;;6.70;1.00;;;8.66;100.00;94969.09;4965545;28;20207;-65
2023/02/24 01:40:16;;;;;;;44.90;22.83;;;6.70;1.00;;;8.73;100.00;94969.66;4963215;28;20640;-65
2023/02/24 01:42:46;;;;;;;43.73;22.73;;;6.70;1.00;;;8.60;100.00;94976.28;4966288;28;20717;-65
2023/02/24 01:45:24;;;;;;;46.00;22.67;;;6.70;1.00;;;8.53;100.00;94973.03;4962855;28;20264;-65
2023/02/24 01:47:51;;;;;;;42.07;22.37;;;6.70;1.00;;;8.51;100.00;94967.22;4966298;28;20202;-65
2023/02/24 01:50:24;;;;;;;45.87;23.63;;;6.70;1.00;;;8.52;100.00;94966.13;4965909;28;20272;-65
2023/02/24 01:52:55;;;;;;;42.83;23.37;;;6.70;1.00;;;8.54;100.00;94955.25;4964540;28;20272;-65
2023/02/24 01:55:27;;;;;;;50.87;24.13;;;6.70;1.00;;;8.59;100.00;94960.59;4961675;28;20209;-65
2023/02/24 01:57:56;;;;;;;43.60;22.80;;;6.70;1.00;;;8.73;100.00;94959.03;4965953;28;20572;-65
2023/02/24 02:00:43;;;;;;;42.80;22.37;;;6.70;1.00;;;8.72;100.00;94962.75;4960388;28;21026;-65
2023/02/24 02:03:19;;;;;;;40.23;21.83;;;6.70;1.00;;;8.74;100.00;94963.28;4961234;28;20238;-65
2023/02/24 02:05:47;;;;;;;41.97;21.83;;;6.70;1.00;;;8.60;100.00;94962.16;4963050;28;20212;-65
2023/02/24 02:08:16;;;;;;;40.37;21.50;;;6.60;1.00;;;8.64;100.00;94966.72;4965961;28;20207;-65
2023/02/24 02:10:44;;;;;;;42.43;21.90;;;6.70;1.00;;;8.61;100.00;94958.44;4966781;28;20205;-65
2023/02/24 02:13:12;;;;;;;40.80;20.47;;;6.60;1.00;;;8.71;100.00;94959.28;4966166;28;20222;-65
2023/02/24 02:15:52;;;;;;;40.33;20.27;;;6.60;1.00;;;8.71;100.00;94961.13;4964826;28;20936;-65
2023/02/24 02:18:32;;;;;;;41.20;21.13;;;6.60;1.00;;;8.73;100.00;94949.16;4963946;28;20296;-65
2023/02/24 02:21:57;;;;;;;37.87;20.80;;;6.60;1.00;;;8.68;100.00;94949.16;4958420;28;20301;-65
2023/02/24 02:24:37;;;;;;;38.53;21.23;;;6.60;1.00;;;8.72;100.00;94944.16;4921368;29;20227;-65
2023/02/24 02:27:48;;;;;;;43.93;22.23;;;6.60;1.00;;;8.80;100.00;94941.75;4924899;29;20214;-65
2023/02/24 02:30:41;;;;;;;41.53;21.30;;;6.60;1.00;;;8.62;100.00;94938.81;4923127;29;20274;-65
2023/02/24 02:34:12;;;;;;;41.23;22.47;;;6.60;1.00;;;8.67;100.00;94934.28;4928661;29;20211;-65
2023/02/24 02:36:49;;;;;;;40.10;22.67;;;6.60;1.00;;;8.75;100.00;94936.44;4922447;29;20267;-65
2023/02/24 02:39:24;;;;;;;37.43;20.07;;;6.60;1.00;;;8.70;100.00;94941.75;4925505;29;20261;-64
2023/02/24 02:42:03;;;;;;;42.87;21.27;;;6.60;1.00;;;8.55;100.00;94939.06;4918874;29;20724;-65
2023/02/24 02:44:38;;;;;;;42.37;21.60;;;6.60;1.00;;;8.55;100.00;94931.09;4924331;29;20321;-65
2023/02/24 02:47:12;;;;;;;43.10;22.20;;;6.50;1.00;;;8.51;100.00;94931.84;4923041;29;20242;-65
2023/02/24 02:49:43;;;;;;;44.50;21.90;;;6.50;1.00;;;8.54;100.00;94921.53;4922842;29;20308;-65
2023/02/24 02:52:16;;;;;;;43.17;23.37;;;6.40;1.00;;;8.54;100.00;94926.84;4923535;29;20201;-65
2023/02/24 02:54:49;;;;;;;45.30;22.30;;;6.40;1.00;;;8.47;100.00;94920.94;4943008;28;20206;-65
2023/02/24 02:57:21;;;;;;;42.23;22.00;;;6.50;1.00;;;8.54;100.00;94918.06;4969222;28;20209;-65
2023/02/24 02:59:53;;;;;;;41.17;22.60;;;6.50;1.00;;;8.57;100.00;94918.31;4968717;28;20307;-65
2023/02/24 03:02:27;;;;;;;47.50;23.67;;;6.40;1.00;;;8.53;100.00;94913.81;4967261;28;20213;-65
2023/02/24 03:05:00;;;;;;;39.40;22.27;;;6.40;1.00;;;8.53;100.00;94919.91;4968297;28;20686;-65
2023/02/24 03:07:33;;;;;;;42.03;23.57;;;6.40;1.00;;;8.58;100.00;94909.28;4969645;28;20299;-65
2023/02/24 03:10:09;;;;;;;41.53;23.50;;;6.40;1.00;;;8.61;100.00;94914.09;4971140;28;20264;-65
2023/02/24 03:12:39;;;;;;;40.07;21.97;;;6.40;1.00;;;8.62;100.00;94913.00;4969962;28;20208;-65
2023/02/24 03:15:10;;;;;;;44.20;22.70;;;6.50;1.00;;;8.59;100.00;94907.44;4965980;28;20922;-65
2023/02/24 03:17:42;;;;;;;43.57;22.13;;;6.50;1.00;;;8.60;100.00;94904.50;4972536;28;20213;-65
2023/02/24 03:20:19;;;;;;;43.13;22.27;;;6.50;1.00;;;8.64;100.00;94915.41;4968795;28;20217;-65
2023/02/24 03:22:50;;;;;;;40.90;22.67;;;6.50;1.00;;;8.65;100.00;94914.34;4966169;28;20244;-65
2023/02/24 03:25:23;;;;;;;39.70;22.47;;;6.50;1.00;;;8.60;100.00;94911.69;4970378;28;20267;-65
2023/02/24 03:27:56;;;;;;;38.90;21.07;;;6.50;1.00;;;8.62;100.00;94902.38;4968288;28;20653;-65
2023/02/24 03:30:29;;;;;;;38.90;21.27;;;6.50;1.00;;;8.64;100.00;94905.59;4965599;28;20215;-65
2023/02/24 03:33:06;;;;;;;40.90;22.40;;;6.40;1.00;;;8.64;100.00;94902.13;4966896;28;20200;-65
2023/02/24 03:35:40;;;;;;;41.50;22.30;;;6.40;1.00;;;8.66;100.00;94907.97;4971666;28;20259;-65
2023/02/24 03:38:09;;;;;;;45.80;22.00;;;6.40;1.00;;;8.66;100.00;94903.47;4963214;28;20674;-65
2023/02/24 03:40:38;;;;;;;43.20;21.80;;;6.40;1.00;;;8.65;100.00;94904.53;4971068;28;20214;-65
2023/02/24 03:43:25;;;;;;;42.40;20.87;;;6.40;1.00;;;8.73;100.00;94909.28;4967062;28;20315;-65
2023/02/24 03:45:52;;;;;;;40.13;21.07;;;6.40;1.00;;;8.75;100.00;94901.06;4961389;28;20212;-65
2023/02/24 03:48:19;;;;;;;36.70;21.47;;;6.50;1.00;;;8.73;100.00;94909.28;4967259;28;20220;-65
2023/02/24 03:50:48;;;;;;;46.10;22.47;;;6.50;1.00;;;8.62;100.00;94904.25;4969525;28;20620;-65
2023/02/24 03:53:32;;;;;;;40.90;20.60;;;6.50;1.00;;;8.68;100.00;94900.53;4962311;28;20238;-65
2023/02/24 03:56:12;;;;;;;46.27;23.10;;;6.50;1.00;;;8.67;100.00;94896.28;4963394;28;20687;-65
2023/02/24 03:58:54;;;;;;;38.87;21.20;;;6.50;1.00;;;8.71;100.00;94908.78;4959356;28;20213;-65
2023/02/24 04:01:33;;;;;;;37.50;20.70;;;6.40;1.00;;;8.73;100.00;94908.53;4966251;28;20244;-65
2023/02/24 04:04:03;;;;;;;43.87;21.67;;;6.40;1.00;;;8.70;100.00;94909.84;4967714;28;20251;-65
2023/02/24 04:06:42;;;;;;;47.73;22.03;;;6.50;1.00;;;8.73;100.00;94901.31;4970120;28;20265;-65
2023/02/24 04:09:18;;;;;;;46.53;21.93;;;6.40;1.00;;;8.78;100.00;94897.91;4964204;28;20573;-65
2023/02/24 04:11:54;;;;;;;46.07;23.27;;;6.40;1.00;;;8.67;100.00;94902.38;4970194;28;20662;-65
2023/02/24 04:14:28;;;;;;;57.30;24.10;;;6.40;1.00;;;8.70;100.00;94895.75;4960573;28;20673;-65
2023/02/24 04:16:59;;;;;;;57.30;24.53;;;6.40;1.00;;;8.73;100.00;94897.88;4966889;28;20244;-65
2023/02/24 04:19:29;;;;;;;53.77;25.60;;;6.50;1.00;;;8.70;100.00;94896.56;4967211;28;20308;-65
2023/02/24 04:21:58;;;;;;;54.43;24.97;;;6.40;1.00;;;8.70;100.00;94896.56;4967634;28;20658;-65
2023/02/24 04:24:30;;;;;;;233.00;29.57;;;6.40;1.00;;;8.41;100.00;94887.47;4968506;28;20230;-65
2023/02/24 04:26:59;;;;;;;370.20;34.57;;;6.30;1.00;;;8.50;100.00;94872.63;4967835;28;20204;-65
2023/02/24 04:29:34;;;;;;;65.23;25.23;;;6.30;1.00;;;8.57;100.00;94875.81;4962565;28;20275;-65
2023/02/24 04:32:06;;;;;;;97.97;26.50;;;6.30;1.00;;;8.52;100.00;94877.66;4963996;28;20567;-65
2023/02/24 04:34:32;;;;;;;55.43;24.23;;;6.30;1.00;;;8.50;100.00;94869.97;4962689;28;20228;-63
2023/02/24 04:37:02;;;;;;;115.03;26.93;;;6.30;1.00;;;8.53;100.00;94868.63;4962742;28;20224;-63
2023/02/24 04:39:30;;;;;;;107.47;26.17;;;6.30;1.00;;;8.50;100.00;94867.31;4960414;28;20213;-65
2023/02/24 04:42:00;;;;;;;72.50;25.50;;;6.30;1.00;;;8.42;100.00;94865.16;4964752;28;20221;-63
2023/02/24 04:44:28;;;;;;;62.57;25.33;;;6.30;1.00;;;8.46;100.00;94874.19;4960832;28;20710;-65
2023/02/24 04:46:54;;;;;;;189.87;28.63;;;6.30;1.00;;;8.51;100.00;94860.91;4964766;28;20211;-64
2023/02/24 04:49:21;;;;;;;49.60;22.90;;;6.30;1.00;;;8.57;100.00;94865.16;4960551;28;20304;-64
2023/02/24 04:51:50;;;;;;;52.20;22.70;;;6.30;1.00;;;8.60;100.00;94861.19;4967193;28;20932;-64
2023/02/24 04:54:20;;;;;;;83.43;24.20;;;6.30;1.00;;;8.56;100.00;94863.56;4962931;28;20272;-64
2023/02/24 04:56:49;;;;;;;56.23;23.63;;;6.30;1.00;;;8.53;100.00;94850.03;4969486;28;20308;-63
2023/02/24 04:59:16;;;;;;;67.03;24.53;;;6.20;1.00;;;8.52;100.00;94862.50;4964040;28;20237;-63
2023/02/24 05:01:44;;;;;;;57.50;23.30;;;6.20;1.00;;;8.62;100.00;94861.75;4969033;28;20622;-63
2023/02/24 05:04:13;;;;;;;55.07;22.73;;;6.20;1.00;;;8.63;100.00;94850.81;4962747;28;20239;-64
2023/02/24 05:06:42;;;;;;;67.70;24.27;;;6.20;1.00;;;8.53;100.00;94856.13;4966020;28;20211;-63
2023/02/24 05:09:13;;;;;;;78.30;25.00;;;6.30;1.00;;;8.55;100.00;94861.19;4964837;28;20582;-63
2023/02/24 05:11:42;;;;;;;55.93;24.53;;;6.20;1.00;;;8.49;100.00;94844.44;4970364;28;20572;-65
2023/02/24 05:14:13;;;;;;;135.00;25.33;;;6.20;1.00;;;8.58;100.00;94837.53;4960078;28;20801;-66
2023/02/24 05:16:42;;;;;;;61.10;23.17;;;6.20;1.00;;;8.51;100.00;94842.31;4967271;28;20209;-65
2023/02/24 05:21:56;;;;;;;47.80;22.33;;;6.20;1.00;;;8.46;100.00;94839.66;4970545;28;20565;-63
2023/02/24 05:24:24;;;;;;;308.53;29.53;;;6.20;1.00;;;8.43;100.00;94836.75;4964990;28;20280;-65
2023/02/24 05:26:57;;;;;;;61.73;22.97;;;6.10;1.00;;;8.48;100.00;94836.75;4960407;28;20213;-65
2023/02/24 05:29:24;;;;;;;58.13;22.27;;;6.10;1.00;;;8.39;100.00;94820.53;4962852;28;20217;-65
2023/02/24 05:31:52;;;;;;;92.03;24.87;;;6.10;1.00;;;8.50;100.00;94822.13;4968435;28;20576;-65
2023/02/24 05:34:23;;;;;;;60.67;22.73;;;6.10;1.00;;;8.55;100.00;94821.31;4966797;28;20667;-65
2023/02/24 05:36:52;;;;;;;227.47;27.40;;;6.20;1.00;;;8.48;100.00;94810.94;4968566;28;20288;-64
2023/02/24 05:39:20;;;;;;;150.27;25.63;;;6.20;1.00;;;8.47;100.00;94811.25;4964618;28;20213;-64
2023/02/24 05:41:48;;;;;;;165.23;25.20;;;6.20;1.00;;;8.51;100.00;94805.13;4966464;28;20208;-65
2023/02/24 05:44:21;;;;;;;112.63;22.47;;;6.20;1.00;;;8.53;100.00;94805.63;4960724;28;20236;-65
2023/02/24 05:46:49;;;;;;;58.63;22.70;;;6.20;1.00;;;8.79;100.00;94793.94;4968153;28;20299;-65
2023/02/24 05:49:22;;;;;;;67.63;23.07;;;6.20;1.00;;;8.65;100.00;94798.22;4965067;28;20218;-65
2023/02/24 05:51:54;;;;;;;57.47;22.70;;;6.20;1.00;;;8.57;100.00;94800.63;4964582;28;20308;-63
2023/02/24 05:54:24;;;;;;;49.13;21.47;;;6.20;1.00;;;8.51;100.00;94786.53;4964264;28;20205;-64
2023/02/24 05:56:51;;;;;;;68.10;22.13;;;6.20;1.00;;;8.37;100.00;94789.97;4962036;28;20264;-63
2023/02/24 05:59:20;;;;;;;40.60;19.83;;;6.20;1.00;;;8.45;100.00;94782.28;4966060;28;20259;-67
2023/02/24 06:01:51;;;;;;;72.20;21.23;;;6.10;1.00;;;8.49;100.00;94780.69;4963403;28;20228;-66
2023/02/24 06:04:38;;;;;;;58.63;22.13;;;6.20;1.00;;;8.45;100.00;94776.97;4965607;28;20228;-67
2023/02/24 06:07:12;;;;;;;52.33;21.33;;;6.20;1.00;;;8.44;100.00;94786.00;4965906;28;20244;-66
2023/02/24 06:09:43;;;;;;;271.60;26.60;;;6.20;1.00;;;8.38;100.00;94781.72;4956107;28;20215;-66
2023/02/24 06:12:13;;;;;;;75.30;21.83;;;6.10;1.00;;;8.48;100.00;94778.28;4958155;28;20214;-67
2023/02/24 06:14:41;;;;;;;103.87;21.67;;;6.20;1.00;;;8.47;100.00;94774.03;4960159;28;20578;-66
2023/02/24 06:17:08;;;;;;;79.77;22.53;;;6.20;1.00;;;8.46;100.00;94770.56;4958257;28;20761;-67
2023/02/24 06:19:35;;;;;;;69.87;19.93;;;6.10;1.00;;;8.46;100.00;94772.44;4959576;28;20240;-65
2023/02/24 06:22:05;;;;;;;112.17;23.00;;;6.20;1.00;;;8.38;100.00;94765.78;4969606;28;20272;-65
2023/02/24 06:24:33;;;;;;;74.47;21.43;;;6.20;1.00;;;8.35;100.00;94768.19;4961404;28;20225;-65
2023/02/24 06:27:01;;;;;;;56.63;20.90;;;6.10;1.00;;;8.38;100.00;94763.13;4972176;28;20212;-64
2023/02/24 06:29:30;;;;;;;65.27;19.67;;;6.20;1.00;;;8.44;100.00;94767.41;4972333;28;20209;-66
2023/02/24 06:31:58;;;;;;;47.20;19.33;;;6.20;1.00;;;8.39;100.00;94767.41;4971970;28;20275;-64
2023/02/24 06:34:26;;;;;;;105.43;21.30;;;6.20;1.00;;;8.64;100.00;94771.91;4968953;28;20530;-67
2023/02/24 06:36:53;;;;;;;57.30;20.50;;;6.20;1.00;;;8.64;100.00;94778.03;4965631;28;20625;-64
2023/02/24 06:39:20;;;;;;;75.43;21.40;;;6.20;1.00;;;8.61;100.00;94777.72;4966693;28;20606;-64
2023/02/24 06:42:00;;;;;;;81.30;21.03;;;6.20;1.00;;;9.04;100.00;94775.28;4965327;28;20206;-64
2023/02/24 06:44:29;;;;;;;232.73;26.37;;;6.30;1.00;;;8.83;100.00;94795.00;4968622;28;20220;-64
2023/02/24 06:46:57;;;;;;;88.33;21.60;;;6.20;1.00;;;8.57;100.00;94793.41;4966212;28;20709;-64
2023/02/24 06:49:25;;;;;;;257.43;28.10;;;6.20;1.00;;;8.63;100.00;94783.59;4964591;28;20214;-64
2023/02/24 06:51:53;;;;;;;288.67;29.60;;;6.20;1.00;;;8.49;100.00;94778.03;4965273;28;20216;-66
2023/02/24 06:54:21;;;;;;;176.53;26.83;;;6.20;1.00;;;8.37;100.00;94772.16;4969194;28;20621;-65
2023/02/24 06:56:48;;;;;;;269.50;28.67;;;6.20;1.00;;;8.37;100.00;94764.19;4965437;28;20216;-65
2023/02/24 06:59:20;;;;;;;137.90;23.83;;;6.20;1.00;;;8.46;100.00;94767.91;4967087;28;20209;-66
2023/02/24 07:01:47;;;;;;;86.90;22.03;;;6.20;1.00;;;8.34;100.00;94761.28;4967180;28;20216;-64
2023/02/24 07:04:19;;;;;;;36.43;17.30;;;6.20;1.00;;;8.44;100.00;94767.41;4964331;28;20680;-64
2023/02/24 07:06:51;;;;;;;37.30;17.17;;;6.20;1.00;;;8.39;100.00;94759.44;4961486;28;20213;-64
2023/02/24 07:09:20;;;;;;;33.83;17.23;;;6.20;1.00;;;8.49;100.00;94767.41;4968779;28;20752;-64
2023/02/24 07:11:50;;;;;;;35.53;15.87;;;6.20;1.00;;;8.50;100.00;94773.50;4962276;28;20221;-64
2023/02/24 07:14:19;;;;;;;38.60;17.33;;;6.20;1.00;;;8.53;100.00;94768.44;4969565;28;20204;-64
2023/02/24 07:16:51;;;;;;;37.73;16.77;;;6.30;1.00;;;8.53;100.00;94770.31;4963105;28;20676;-64
2023/02/24 07:19:20;;;;;;;36.00;16.67;;;6.30;1.00;;;8.60;100.00;94758.34;4968507;28;20219;-64
2023/02/24 07:21:49;;;;;;;33.43;16.87;;;6.30;1.00;;;8.68;100.00;94765.00;4965731;28;20264;-64
2023/02/24 07:24:23;;;;;;;32.07;16.00;;;6.40;1.00;;;8.64;100.00;94772.72;4970160;28;20234;-64
2023/02/24 07:26:56;;;;;;;24.77;14.00;;;6.30;1.00;;;8.69;100.00;94771.91;4968086;28;20204;-68
2023/02/24 07:29:24;;;;;;;27.27;14.50;;;6.40;1.00;;;8.68;100.00;94772.97;4970504;28;20209;-64
2023/02/24 07:31:53;;;;;;;25.50;13.13;;;6.40;1.00;;;8.68;100.00;94773.75;4961211;28;20210;-70
2023/02/24 07:34:23;;;;;;;24.87;12.17;;;6.50;1.00;;;8.78;100.00;94768.41;4973396;28;20714;-65
2023/02/24 07:36:51;;;;;;;25.17;13.40;;;6.50;1.00;;;8.85;100.00;94762.81;4966586;28;20692;-73
2023/02/24 07:39:19;;;;;;;24.03;13.60;;;6.50;1.00;;;8.77;100.00;94766.81;4971817;28;20224;-64
2023/02/24 07:41:48;;;;;;;26.30;12.90;;;6.50;1.00;;;8.88;100.00;94759.66;4969765;28;20264;-64
2023/02/24 07:44:16;;;;;;;26.87;12.43;;;6.60;1.00;;;9.07;100.00;94766.78;4971269;28;20233;-65
2023/02/24 07:46:43;;;;;;;18.93;11.57;;;6.70;1.00;;;9.02;100.00;94764.13;4970044;28;20264;-64
2023/02/24 07:49:14;;;;;;;18.33;10.73;;;6.70;1.00;;;8.88;100.00;94780.91;4966441;28;20240;-65
2023/02/24 07:51:42;;;;;;;19.50;10.63;;;6.70;1.00;;;8.92;100.00;94773.97;4966547;28;20214;-65
2023/02/24 07:54:14;;;;;;;16.77;9.13;;;6.70;1.00;;;9.12;100.00;94780.06;4964672;28;20212;-64
2023/02/24 07:56:47;;;;;;;15.50;8.63;;;6.80;1.00;;;8.97;100.00;94780.09;4965556;28;20235;-64
2023/02/24 07:59:17;;;;;;;17.50;8.20;;;6.80;1.00;;;8.95;100.00;94784.09;4960232;28;20208;-65
2023/02/24 08:01:49;;;;;;;15.80;7.90;;;6.80;1.00;;;9.17;100.00;94787.22;4965154;28;20588;-64
2023/02/24 08:04:18;;;;;;;18.27;8.23;;;6.80;1.00;;;9.22;100.00;94785.34;4968726;28;20242;-64
2023/02/24 08:06:49;;;;;;;16.43;8.50;;;6.80;1.00;;;9.20;100.00;94779.50;4964173;28;20210;-65
2023/02/24 08:09:19;;;;;;;13.43;7.93;;;6.90;1.00;;;9.07;100.00;94776.59;4965065;28;20214;-65
2023/02/24 08:11:51;;;;;;;14.80;8.23;;;6.80;1.00;;;9.10;100.00;94776.06;4962811;28;20216;-65
2023/02/24 08:14:22;;;;;;;15.90;7.93;;;6.80;1.00;;;9.15;100.00;94776.88;4965287;28;20290;-64
2023/02/24 08:16:51;;;;;;;15.03;8.23;;;6.80;1.00;;;9.35;100.00;94773.34;4963663;28;20694;-65
2023/02/24 08:19:20;;;;;;;15.30;8.20;;;6.90;1.00;;;9.57;100.00;94769.25;4959696;28;20288;-65
2023/02/24 08:21:51;;;;;;;15.77;7.53;;;7.00;1.00;;;9.58;100.00;94770.03;4966701;28;20208;-65
2023/02/24 08:24:22;;;;;;;17.47;7.57;;;7.10;1.00;;;9.60;100.00;94771.34;4965420;28;20225;-65
2023/02/24 08:27:03;;;;;;;12.27;6.83;;;7.10;1.00;;;9.68;100.00;94775.31;4962380;28;20205;-65
2023/02/24 08:29:30;;;;;;;16.40;7.03;;;7.20;1.00;;;9.59;100.00;94775.09;4967196;28;20615;-65
2023/02/24 08:31:57;;;;;;;15.27;8.13;;;7.30;1.00;;;9.71;100.00;94772.13;4965102;28;20222;-66
2023/02/24 08:34:30;;;;;;;11.77;6.90;;;7.30;1.00;;;9.83;100.00;94776.06;4960492;28;20563;-66
2023/02/24 08:37:00;;;;;;;14.53;6.50;;;7.40;1.00;;;9.81;100.00;94772.88;4962964;28;20227;-67
2023/02/24 08:39:29;;;;;;;12.63;6.63;;;7.40;1.00;;;9.92;100.00;94777.06;4966182;28;20248;-65
2023/02/24 08:42:02;;;;;;;13.03;6.33;;;7.50;1.00;;;9.87;100.00;94771.78;4964452;28;20215;-64
2023/02/24 08:44:28;;;;;;;13.93;6.97;;;7.50;1.00;;;9.81;100.00;94777.41;4957155;28;20617;-64
2023/02/24 08:46:56;;;;;;;18.27;7.10;;;7.50;1.00;;;9.89;100.00;94766.97;4956129;28;20221;-65
2023/02/24 08:49:24;;;;;;;15.83;6.20;;;7.50;1.00;;;9.44;100.00;94767.16;4960947;28;20294;-65
2023/02/24 08:51:52;;;;;;;13.20;5.93;;;7.40;1.00;;;9.63;100.00;94762.03;4958107;28;20205;-65
2023/02/24 08:54:25;;;;;;;15.70;6.57;;;7.40;1.00;;;9.61;100.00;94765.00;4964400;28;20265;-64
2023/02/24 08:56:55;;;;;;;15.60;6.23;;;7.40;1.00;;;9.88;100.00;94762.72;4964121;28;20280;-66
2023/02/24 08:59:48;;;;;;;17.17;5.47;;;7.40;1.00;;;9.56;100.00;94770.34;4963671;28;20302;-66
2023/02/24 09:02:22;;;;;;;17.13;6.60;;;7.40;1.00;;;10.01;100.00;94756.78;4965329;28;20215;-66
2023/02/24 09:04:53;;;;;;;10.77;5.77;;;7.50;1.00;;;10.38;100.00;94749.09;4967915;28;20230;-66
2023/02/24 09:07:22;;;;;;;12.07;5.67;;;7.60;1.00;;;10.17;100.00;94743.41;4968677;28;20271;-66
2023/02/24 09:09:55;;;;;;;11.63;5.67;;;7.80;1.00;;;10.37;100.00;94741.38;4963833;28;20224;-65
2023/02/24 09:12:24;;;;;;;15.03;5.43;;;7.80;1.00;;;10.46;100.00;94743.13;4961662;28;20577;-64
2023/02/24 09:14:55;;;;;;;13.17;5.53;;;7.90;1.00;;;10.56;100.00;94735.06;4965720;28;20214;-65
2023/02/24 09:17:39;;;;;;;13.80;5.10;;;8.00;1.00;;;10.65;100.00;94735.28;4967315;28;20295;-65
2023/02/24 09:22:59;;;;;;;13.07;5.10;;;8.20;1.00;;;10.76;100.00;94732.22;4956177;28;20340;-65
2023/02/24 09:25:40;;;;;;;13.83;6.03;;;8.30;1.00;;;11.03;100.00;94732.50;4964933;28;20224;-66
2023/02/24 09:28:15;;;;;;;13.83;4.87;;;8.30;1.00;;;10.79;100.00;94733.53;4955938;28;20672;-64
2023/02/24 09:30:52;;;;;;;10.43;4.53;;;8.30;1.00;;;11.03;100.00;94732.50;4964700;28;20213;-64
2023/02/24 09:33:21;;;;;;;9.37;4.03;;;8.30;1.00;;;11.28;100.00;94729.56;4969186;28;20258;-65
2023/02/24 09:36:01;;;;;;;12.37;4.60;;;8.40;1.00;;;11.24;100.00;94731.19;4964680;28;20212;-64
2023/02/24 09:41:30;;;;;;;13.33;5.07;;;8.50;1.00;;;11.72;100.00;94725.81;4963657;28;20235;-65
2023/02/24 09:44:02;;;;;;;14.50;4.77;;;8.70;1.00;;;11.65;100.00;94728.06;4964991;28;20208;-65
2023/02/24 09:46:36;;;;;;;12.63;3.93;;;8.80;1.00;;;11.10;100.00;94734.81;4966546;28;20231;-65
2023/02/24 09:49:12;;;;;;;16.07;4.80;;;8.80;1.00;;;11.41;100.00;94720.84;4963503;28;20279;-66
2023/02/24 09:51:42;;;;;;;14.27;4.00;;;8.80;1.00;;;11.53;100.00;94720.44;4967798;28;20233;-65
2023/02/24 09:54:15;;;;;;;9.60;3.77;;;8.80;1.00;;;11.46;100.00;94722.66;4967057;28;20221;-66
2023/02/24 09:57:06;;;;;;;10.60;4.03;;;8.70;1.00;;;11.42;100.00;94710.97;4964876;28;20208;-66
2023/02/24 09:59:49;;;;;;;9.33;3.70;;;8.70;1.00;;;11.03;100.00;94723.69;4966556;28;20327;-66
2023/02/24 10:02:38;;;;;;;12.80;4.03;;;8.60;1.00;;;11.07;100.00;94717.47;4963997;28;20240;-66
2023/02/24 10:05:18;;;;;;;12.33;3.73;;;8.50;1.00;;;10.84;100.00;94714.81;4961466;28;20233;-66
2023/02/24 10:07:46;;;;;;;12.70;3.57;;;8.40;1.00;;;10.89;100.00;94712.09;4965100;28;20228;-66
2023/02/24 10:10:19;;;;;;;10.03;3.80;;;8.40;1.00;;;10.82;100.00;94714.31;4959385;28;20663;-64
2023/02/24 10:12:52;;;;;;;9.20;3.63;;;8.40;1.00;;;10.91;100.00;94708.06;4955953;28;20296;-64
2023/02/24 10:15:49;;;;;;;12.33;4.07;;;8.40;1.00;;;10.96;100.00;94708.00;4964571;28;20213;-67
2023/02/24 10:18:31;;;;;;;16.83;4.37;;;8.40;1.00;;;10.79;100.00;94707.66;4960506;28;20217;-72
2023/02/24 10:21:06;;;;;;;12.93;4.60;;;8.40;1.00;;;10.69;100.00;94698.94;4965703;28;20212;-65
2023/02/24 10:23:55;;;;;;;16.80;5.23;;;8.40;1.00;;;10.85;100.00;94698.53;4961593;28;20236;-65
2023/02/24 10:26:43;;;;;;;19.43;5.37;;;8.40;1.00;;;10.54;100.00;94697.22;4966855;28;20263;-65
2023/02/24 10:29:28;;;;;;;10.27;5.20;;;8.40;1.00;;;10.93;100.00;94693.66;4966005;28;21812;-65
2023/02/24 10:32:08;;;;;;;11.13;5.80;;;8.40;1.00;;;10.76;100.00;94702.88;4966233;28;20246;-71
2023/02/24 10:34:35;;;;;;;18.23;6.17;;;8.40;1.00;;;10.46;100.00;94699.72;4961589;28;20211;-65
2023/02/24 10:37:18;;;;;;;13.67;5.67;;;8.40;1.00;;;10.08;100.00;94696.03;4965979;28;20216;-65
2023/02/24 10:39:48;;;;;;;14.33;6.27;;;8.40;1.00;;;10.07;100.00;94701.63;4960336;28;20296;-64
2023/02/24 10:42:25;;;;;;;16.00;6.17;;;8.40;1.00;;;10.06;100.00;94697.38;4967132;28;20618;-65
2023/02/24 10:45:15;;;;;;;17.20;6.07;;;8.30;1.00;;;10.10;100.00;94693.09;4965403;28;20684;-65
2023/02/24 10:47:44;;;;;;;16.00;5.87;;;8.20;1.00;;;10.38;100.00;94681.66;4962497;28;20208;-66
2023/02/24 10:50:23;;;;;;;16.43;6.70;;;8.40;1.00;;;10.34;100.00;94688.59;4965351;28;20280;-65